Terminal Aerodrome Forecast
Issued by NWS Twin Cities, MN

Home | Current Version | Previous Version | Graphics & Text | Print | Product List | Glossary On
Versions: 1 2 3 4 5 6 7 8 9 10 11 12 13 14
199
FTUS43 KMPX 181742
TAFEAU
TAF
KEAU 181742Z 1818/1918 15008KT P6SM SKC
     FM182000 14011KT P6SM BKN060
     FM190300 13006KT P6SM SCT060
     FM190900 VRB03KT P6SM OVC010
     FM191400 32007KT P6SM BKN015=

USA.gov is the U.S. government's official web portal to all federal, state and local government web resources and services.